Time;durP1;ratioP1;P1;durP2;ratioP2;P2;SDS_P1;SDS_P2;PMS_P1;PMS_P2;Temp;Humidity;BMP_temperature;BMP_pressure;BME280_temperature;BME280_humidity;BME280_pressure;Samples;Min_cycle;Max_cycle;Signal;HPM_P1;HPM_P2
2022/10/07 00:00:18;;;;;;;29.23;26.17;;;14.10;99.90;;;;;;5115882;28;20203;-73
2022/10/07 00:02:43;;;;;;;32.93;27.87;;;14.10;99.90;;;;;;5115762;28;20213;-73
2022/10/07 00:05:09;;;;;;;31.50;27.60;;;14.10;99.90;;;;;;5115654;28;20253;-73
2022/10/07 00:07:35;;;;;;;33.50;28.80;;;14.10;99.90;;;;;;5115917;28;20233;-72
2022/10/07 00:10:00;;;;;;;34.40;28.07;;;14.10;99.90;;;;;;5114356;28;20248;-72
2022/10/07 00:12:26;;;;;;;29.60;26.70;;;14.10;99.90;;;;;;5115832;28;20174;-72
2022/10/07 00:14:51;;;;;;;30.33;26.77;;;14.00;99.90;;;;;;5115385;28;20204;-73
2022/10/07 00:17:17;;;;;;;30.57;27.47;;;14.00;99.90;;;;;;5115584;28;20164;-72
2022/10/07 00:19:43;;;;;;;32.73;29.30;;;14.00;99.90;;;;;;5114349;28;20245;-72
2022/10/07 00:22:08;;;;;;;32.13;28.00;;;14.00;99.90;;;;;;5114745;27;20236;-73
2022/10/07 00:24:34;;;;;;;31.40;28.03;;;14.00;99.90;;;;;;5117525;27;20218;-72
2022/10/07 00:27:00;;;;;;;30.63;27.50;;;14.00;99.90;;;;;;5136018;27;20167;-73
2022/10/07 00:29:26;;;;;;;33.30;28.53;;;14.00;99.90;;;;;;5117486;27;20183;-73
2022/10/07 00:31:53;;;;;;;32.10;29.10;;;14.00;99.90;;;;;;5135773;27;20172;-71
2022/10/07 00:34:18;;;;;;;32.43;28.93;;;14.00;99.90;;;;;;5135854;27;20170;-74
2022/10/07 00:36:44;;;;;;;31.17;27.90;;;14.00;99.90;;;;;;5117258;27;20785;-73
2022/10/07 00:39:13;;;;;;;30.77;27.67;;;14.00;99.90;;;;;;5135609;27;20486;-73
2022/10/07 00:41:44;;;;;;;30.07;27.13;;;14.00;99.90;;;;;;5135641;27;20181;-73
2022/10/07 00:44:30;;;;;;;30.20;26.80;;;13.90;99.90;;;;;;5135423;27;20403;-73
2022/10/07 00:47:20;;;;;;;28.60;25.70;;;14.00;99.90;;;;;;5135228;27;20425;-73
2022/10/07 00:49:54;;;;;;;29.57;25.33;;;13.90;99.90;;;;;;5117130;27;20427;-72
2022/10/07 00:52:23;;;;;;;30.67;27.23;;;13.90;99.90;;;;;;5135654;27;20411;-73
2022/10/07 00:54:53;;;;;;;29.23;26.17;;;13.90;99.90;;;;;;5116996;27;20950;-73
2022/10/07 00:57:25;;;;;;;27.90;25.10;;;13.90;99.90;;;;;;5135575;27;20506;-71
2022/10/07 00:59:53;;;;;;;31.37;27.87;;;13.90;99.90;;;;;;5116827;27;20427;-72
2022/10/07 01:02:19;;;;;;;31.90;28.53;;;13.90;99.90;;;;;;5116920;27;20514;-72
2022/10/07 01:04:45;;;;;;;28.07;25.03;;;13.90;99.90;;;;;;5116718;27;20522;-72
2022/10/07 01:07:11;;;;;;;28.30;25.40;;;13.90;99.90;;;;;;5135341;27;20196;-72
2022/10/07 01:09:37;;;;;;;28.00;25.30;;;13.80;99.90;;;;;;5135124;27;20415;-74
2022/10/07 01:12:13;;;;;;;28.23;25.33;;;13.80;99.90;;;;;;5135166;27;20181;-73
2022/10/07 01:15:13;;;;;;;29.50;26.50;;;13.80;99.90;;;;;;5116612;27;20206;-73
2022/10/07 01:17:56;;;;;;;32.90;27.80;;;13.80;99.90;;;;;;5135071;27;20419;-72
2022/10/07 01:20:30;;;;;;;30.53;27.20;;;13.70;99.90;;;;;;5135031;27;20446;-72
2022/10/07 01:23:00;;;;;;;31.20;27.67;;;13.80;99.90;;;;;;5116292;27;20502;-72
2022/10/07 01:25:48;;;;;;;33.03;27.60;;;13.80;99.90;;;;;;5134761;27;20480;-72
2022/10/07 01:28:25;;;;;;;30.17;27.07;;;13.80;99.90;;;;;;5134658;27;20434;-73
2022/10/07 01:30:55;;;;;;;31.80;28.53;;;13.80;99.90;;;;;;5116354;27;20422;-73
2022/10/07 01:33:27;;;;;;;31.63;28.40;;;13.80;99.90;;;;;;5116600;28;20914;-73
2022/10/07 01:35:55;;;;;;;32.70;29.33;;;13.80;99.90;;;;;;5116285;28;20963;-72
2022/10/07 01:38:25;;;;;;;29.80;26.80;;;13.80;99.90;;;;;;5116454;27;20419;-72
2022/10/07 01:41:03;;;;;;;30.90;27.70;;;13.80;99.90;;;;;;5134668;27;20442;-73
2022/10/07 01:43:31;;;;;;;31.53;27.27;;;13.80;99.90;;;;;;5116570;28;20489;-72
2022/10/07 01:45:57;;;;;;;29.90;25.97;;;13.80;99.90;;;;;;5116147;28;20483;-72
2022/10/07 01:48:22;;;;;;;29.73;26.80;;;13.80;99.90;;;;;;5116449;28;20472;-73
2022/10/07 01:50:50;;;;;;;31.53;27.77;;;13.80;99.90;;;;;;5134605;28;20211;-72
2022/10/07 01:53:32;;;;;;;31.67;28.13;;;13.80;99.90;;;;;;5134855;28;20258;-74
2022/10/07 01:56:19;;;;;;;29.80;26.70;;;13.70;99.90;;;;;;5134673;28;20436;-72
2022/10/07 01:59:30;;;;;;;30.70;27.00;;;13.80;99.90;;;;;;5116364;28;20484;-72
2022/10/07 02:01:59;;;;;;;27.23;24.47;;;13.80;99.90;;;;;;5134607;28;20487;-72
2022/10/07 02:04:33;;;;;;;29.07;25.97;;;13.70;99.90;;;;;;5116081;28;21047;-73
2022/10/07 02:07:09;;;;;;;29.40;26.17;;;13.70;99.90;;;;;;5115964;28;20837;-73
2022/10/07 02:09:55;;;;;;;29.70;26.13;;;13.70;99.90;;;;;;5134567;28;20510;-72
2022/10/07 02:12:30;;;;;;;29.27;26.23;;;13.70;99.90;;;;;;5134735;28;20416;-74
2022/10/07 02:15:09;;;;;;;32.13;28.77;;;13.70;99.90;;;;;;5115997;28;20954;-73
2022/10/07 02:17:40;;;;;;;33.27;27.97;;;13.70;99.90;;;;;;5116117;28;20508;-73
2022/10/07 02:20:10;;;;;;;29.13;25.47;;;13.60;99.90;;;;;;5134392;28;20790;-73
2022/10/07 02:22:37;;;;;;;31.03;26.90;;;13.70;99.90;;;;;;5115645;28;20463;-72
2022/10/07 02:25:04;;;;;;;30.43;26.93;;;13.70;99.90;;;;;;5134243;28;20882;-73
2022/10/07 02:27:34;;;;;;;30.50;27.30;;;13.70;99.90;;;;;;5115954;28;20974;-73
2022/10/07 02:30:09;;;;;;;30.80;27.27;;;13.60;99.90;;;;;;5116113;28;20431;-72
2022/10/07 02:32:38;;;;;;;30.80;27.47;;;13.70;99.90;;;;;;5115896;28;20467;-72
2022/10/07 02:35:13;;;;;;;28.87;25.87;;;13.60;99.90;;;;;;5134097;28;20431;-72
2022/10/07 02:37:41;;;;;;;32.43;28.87;;;13.60;99.90;;;;;;5115984;28;20418;-73
2022/10/07 02:40:07;;;;;;;31.40;28.10;;;13.60;99.90;;;;;;5119554;27;20456;-73
2022/10/07 02:42:38;;;;;;;33.83;28.43;;;13.60;99.90;;;;;;5119608;27;20419;-72
2022/10/07 02:45:27;;;;;;;31.00;26.70;;;13.60;99.90;;;;;;5137793;27;20446;-73
2022/10/07 02:48:24;;;;;;;30.23;26.93;;;13.60;99.90;;;;;;5119714;27;20772;-73
2022/10/07 02:50:55;;;;;;;29.43;26.10;;;13.60;99.90;;;;;;5137804;27;20431;-72
2022/10/07 02:53:25;;;;;;;28.93;25.83;;;13.60;99.90;;;;;;5119567;27;20427;-72
2022/10/07 02:55:53;;;;;;;29.67;25.97;;;13.60;99.90;;;;;;5137598;27;20419;-72
2022/10/07 02:58:24;;;;;;;27.93;23.77;;;13.60;99.90;;;;;;5138060;27;20517;-73
2022/10/07 03:00:56;;;;;;;28.53;25.50;;;13.60;99.90;;;;;;5119108;27;20427;-72
2022/10/07 03:03:23;;;;;;;29.50;26.37;;;13.60;99.90;;;;;;5138013;27;20423;-73
2022/10/07 03:05:49;;;;;;;35.47;31.20;;;13.50;99.90;;;;;;5137514;27;20466;-72
2022/10/07 03:08:15;;;;;;;68.37;47.60;;;13.50;99.90;;;;;;5137815;27;20809;-72
2022/10/07 03:10:41;;;;;;;39.87;33.23;;;13.50;99.90;;;;;;5137523;27;20655;-73
2022/10/07 03:13:06;;;;;;;37.57;29.50;;;13.50;99.90;;;;;;5119002;27;20426;-72
2022/10/07 03:15:35;;;;;;;34.87;28.77;;;13.50;99.90;;;;;;5137256;27;20495;-72
2022/10/07 03:18:02;;;;;;;32.73;29.23;;;13.40;99.90;;;;;;5137577;27;20616;-73
2022/10/07 03:20:29;;;;;;;31.10;27.80;;;13.40;99.90;;;;;;5118727;27;20484;-73
2022/10/07 03:22:55;;;;;;;32.00;28.53;;;13.40;99.90;;;;;;5118485;27;20546;-74
2022/10/07 03:25:20;;;;;;;33.50;27.80;;;13.40;99.90;;;;;;5137184;27;20900;-74
2022/10/07 03:27:47;;;;;;;30.80;27.30;;;13.40;99.90;;;;;;5137308;27;20565;-74
2022/10/07 03:30:13;;;;;;;35.90;28.97;;;13.40;99.90;;;;;;5137071;27;20693;-75
2022/10/07 03:32:40;;;;;;;30.80;27.27;;;13.40;99.90;;;;;;5118626;27;20423;-74
2022/10/07 03:35:06;;;;;;;31.43;28.03;;;13.40;99.90;;;;;;5118434;27;20487;-74
2022/10/07 03:37:32;;;;;;;31.40;26.27;;;13.50;99.90;;;;;;5137032;27;20406;-74
2022/10/07 03:39:57;;;;;;;31.07;27.30;;;13.50;99.90;;;;;;5136826;27;20431;-74
2022/10/07 03:42:23;;;;;;;32.80;26.40;;;13.50;99.90;;;;;;5137088;27;20178;-74
2022/10/07 03:44:48;;;;;;;29.87;26.60;;;13.50;99.90;;;;;;5136716;27;20219;-75
2022/10/07 03:47:16;;;;;;;29.10;26.10;;;13.60;99.90;;;;;;5118405;27;20574;-75
2022/10/07 03:49:42;;;;;;;30.33;26.20;;;13.50;99.90;;;;;;5117657;28;20279;-73
2022/10/07 03:52:08;;;;;;;29.10;25.93;;;13.60;99.90;;;;;;5136562;27;20445;-74
2022/10/07 03:54:34;;;;;;;28.90;25.73;;;13.60;99.90;;;;;;5136601;27;20505;-73
2022/10/07 03:56:59;;;;;;;32.10;26.00;;;13.60;99.90;;;;;;5136565;27;20567;-73
2022/10/07 03:59:25;;;;;;;31.10;27.83;;;13.60;99.90;;;;;;5118159;27;20252;-76
2022/10/07 04:01:50;;;;;;;30.33;25.13;;;13.70;99.90;;;;;;5136465;27;20181;-72
2022/10/07 04:04:16;;;;;;;28.33;25.33;;;13.70;99.90;;;;;;5117958;27;20174;-73
2022/10/07 04:06:44;;;;;;;30.33;27.13;;;13.70;99.90;;;;;;5136483;27;20168;-73
2022/10/07 04:09:13;;;;;;;27.50;24.30;;;13.70;99.90;;;;;;5117763;27;20246;-72
2022/10/07 04:11:40;;;;;;;29.77;25.30;;;13.70;99.90;;;;;;5136321;27;20424;-72
2022/10/07 04:14:06;;;;;;;31.67;25.63;;;13.70;99.90;;;;;;5117842;27;20394;-72
2022/10/07 04:16:34;;;;;;;29.33;26.00;;;13.70;99.90;;;;;;5136021;27;20863;-72
2022/10/07 04:19:00;;;;;;;29.00;25.80;;;13.70;99.90;;;;;;5136602;27;20841;-72
2022/10/07 04:21:25;;;;;;;27.87;24.97;;;13.60;99.90;;;;;;5135795;27;20462;-72
2022/10/07 04:23:51;;;;;;;29.73;24.47;;;13.60;99.90;;;;;;5135767;27;20234;-72
2022/10/07 04:26:17;;;;;;;27.47;24.57;;;13.60;99.90;;;;;;5117269;27;20734;-72
2022/10/07 04:28:42;;;;;;;28.10;25.10;;;13.60;99.90;;;;;;5136286;27;20175;-72
2022/10/07 04:31:09;;;;;;;30.03;26.70;;;13.60;99.90;;;;;;5117321;27;20226;-73
2022/10/07 04:33:39;;;;;;;26.83;23.97;;;13.60;99.90;;;;;;5136316;27;20250;-72
2022/10/07 04:36:06;;;;;;;29.03;25.93;;;13.60;99.90;;;;;;5127824;27;20432;-72
2022/10/07 04:38:32;;;;;;;28.83;23.43;;;13.60;99.90;;;;;;5115420;28;20419;-72
2022/10/07 04:41:02;;;;;;;27.47;24.23;;;13.60;99.90;;;;;;5115058;28;20428;-72
2022/10/07 04:43:32;;;;;;;46.10;38.00;;;13.60;99.90;;;;;;5115568;28;20689;-72
2022/10/07 04:46:04;;;;;;;40.77;36.47;;;13.60;99.90;;;;;;5114984;28;20472;-72
2022/10/07 04:48:29;;;;;;;37.33;33.57;;;13.60;99.90;;;;;;5119728;27;20903;-72
2022/10/07 04:51:04;;;;;;;31.87;28.67;;;13.60;99.90;;;;;;5134357;27;20439;-72
2022/10/07 04:53:30;;;;;;;33.13;29.20;;;13.60;99.90;;;;;;5134177;27;20418;-72
2022/10/07 04:55:57;;;;;;;31.50;28.17;;;13.50;99.90;;;;;;5113252;28;20444;-72
2022/10/07 04:58:22;;;;;;;30.17;26.93;;;13.50;99.90;;;;;;5115010;28;20472;-70
2022/10/07 05:00:50;;;;;;;33.30;28.03;;;13.50;99.90;;;;;;5114533;28;20527;-70
2022/10/07 05:03:17;;;;;;;36.40;29.77;;;13.50;99.90;;;;;;5114112;28;20665;-70
2022/10/07 05:05:45;;;;;;;30.67;27.37;;;13.50;99.90;;;;;;5114422;28;20475;-70
2022/10/07 05:08:16;;;;;;;33.80;30.27;;;13.50;99.90;;;;;;5114787;28;20408;-69
2022/10/07 05:10:42;;;;;;;32.47;27.40;;;13.50;99.90;;;;;;5096247;28;20440;-72
2022/10/07 05:13:14;;;;;;;35.03;28.33;;;13.50;99.90;;;;;;5114682;28;20827;-70
2022/10/07 05:15:52;;;;;;;31.93;28.30;;;13.50;99.90;;;;;;5131142;27;20468;-70
2022/10/07 05:18:19;;;;;;;30.43;25.93;;;13.50;99.90;;;;;;5134746;27;20407;-70
2022/10/07 05:20:46;;;;;;;33.97;26.97;;;13.50;99.90;;;;;;5133716;27;20431;-70
2022/10/07 05:23:16;;;;;;;39.80;33.80;;;13.50;99.90;;;;;;5113895;27;20459;-72
2022/10/07 05:25:43;;;;;;;33.33;28.53;;;13.50;99.90;;;;;;5130240;27;20492;-70
2022/10/07 05:28:13;;;;;;;30.77;27.37;;;13.50;99.90;;;;;;5131496;27;20497;-73
2022/10/07 05:30:39;;;;;;;32.07;28.07;;;13.50;99.90;;;;;;5132954;27;20423;-71
2022/10/07 05:33:06;;;;;;;31.00;27.23;;;13.50;99.90;;;;;;5132669;27;20421;-71
2022/10/07 05:35:32;;;;;;;34.10;29.33;;;13.50;99.90;;;;;;5132314;27;20946;-71
2022/10/07 05:37:59;;;;;;;37.37;30.20;;;13.50;99.90;;;;;;5114852;27;20510;-71
2022/10/07 05:40:25;;;;;;;34.33;29.37;;;13.50;99.90;;;;;;5133924;27;20435;-71
2022/10/07 05:42:51;;;;;;;35.40;29.00;;;13.50;99.90;;;;;;5133651;27;20427;-71
2022/10/07 05:45:18;;;;;;;31.43;28.07;;;13.50;99.90;;;;;;5115830;28;20474;-71
2022/10/07 05:47:43;;;;;;;33.73;29.40;;;13.60;99.90;;;;;;5110442;28;20560;-71
2022/10/07 05:50:09;;;;;;;43.40;33.33;;;13.60;99.90;;;;;;5109115;28;20508;-71
2022/10/07 05:52:35;;;;;;;78.43;53.23;;;13.60;99.90;;;;;;5124993;28;20174;-71
2022/10/07 05:55:00;;;;;;;50.27;38.87;;;13.60;99.90;;;;;;5133508;27;20195;-71
2022/10/07 05:57:26;;;;;;;73.60;47.57;;;13.60;99.90;;;;;;5122252;28;20178;-71
2022/10/07 05:59:52;;;;;;;100.70;60.53;;;13.70;99.90;;;;;;5129722;28;20210;-71
2022/10/07 06:02:18;;;;;;;79.27;52.80;;;13.70;99.90;;;;;;5133063;28;20167;-71
2022/10/07 06:04:47;;;;;;;76.90;48.33;;;13.70;99.90;;;;;;5133230;28;20231;-71
2022/10/07 06:07:14;;;;;;;78.37;50.57;;;13.80;99.90;;;;;;5131465;28;20828;-71
2022/10/07 06:15:09;;;;;;;65.57;45.27;;;13.90;99.90;;;;;;5134111;27;20454;-71
2022/10/07 06:17:36;;;;;;;62.33;42.50;;;13.90;99.90;;;;;;5114620;27;20389;-71
2022/10/07 06:20:02;;;;;;;50.07;35.93;;;13.90;99.90;;;;;;5111961;27;20477;-72
2022/10/07 06:22:28;;;;;;;50.00;35.73;;;13.90;99.90;;;;;;5131275;27;20815;-71
2022/10/07 06:24:57;;;;;;;52.77;33.97;;;13.90;99.90;;;;;;5131154;27;20481;-73
2022/10/07 06:27:23;;;;;;;47.07;31.70;;;13.90;99.90;;;;;;5132303;27;20178;-72
2022/10/07 06:29:49;;;;;;;45.17;33.93;;;14.00;99.90;;;;;;5133425;27;20397;-71
2022/10/07 06:32:15;;;;;;;43.27;31.90;;;14.00;99.90;;;;;;5133660;27;20423;-71
2022/10/07 06:34:41;;;;;;;43.90;31.27;;;14.10;99.90;;;;;;5133864;27;20491;-71
2022/10/07 06:37:06;;;;;;;33.77;29.47;;;14.10;99.90;;;;;;5135971;27;20167;-71
2022/10/07 06:39:32;;;;;;;36.57;30.33;;;14.20;99.90;;;;;;5116301;27;20211;-71
2022/10/07 06:41:57;;;;;;;41.20;30.50;;;14.20;99.90;;;;;;5087513;27;20295;-71
2022/10/07 06:44:23;;;;;;;34.67;30.07;;;14.30;99.90;;;;;;5086774;27;20191;-69
2022/10/07 06:46:48;;;;;;;34.80;30.60;;;14.30;99.90;;;;;;5101498;27;20215;-69
2022/10/07 06:49:14;;;;;;;33.90;29.90;;;14.40;99.90;;;;;;5101473;27;20762;-69
2022/10/07 06:51:40;;;;;;;38.00;30.57;;;14.50;99.90;;;;;;5099863;27;20787;-70
2022/10/07 06:54:06;;;;;;;34.73;29.20;;;14.60;99.90;;;;;;5100783;27;20861;-69
2022/10/07 06:56:31;;;;;;;36.53;29.40;;;14.60;99.90;;;;;;5108500;27;20195;-69
2022/10/07 06:58:57;;;;;;;36.23;30.17;;;14.70;99.90;;;;;;5116396;27;20675;-69
2022/10/07 07:01:22;;;;;;;124.33;71.03;;;14.80;99.90;;;;;;5133516;27;20202;-69
2022/10/07 07:03:48;;;;;;;86.10;64.53;;;14.90;99.90;;;;;;5134943;27;20624;-69
2022/10/07 07:06:13;;;;;;;31.40;28.00;;;15.00;99.90;;;;;;5134434;27;20222;-69
2022/10/07 07:08:40;;;;;;;34.83;30.30;;;15.10;99.90;;;;;;5132582;27;20175;-69
2022/10/07 07:11:57;;;;;;;30.43;27.20;;;15.20;99.90;;;;;;5115462;27;20197;-71
2022/10/07 07:13:58;;;;;;;35.10;28.40;;;15.30;99.90;;;;;;5115052;27;20659;-71
2022/10/07 07:16:24;;;;;;;32.70;28.40;;;15.40;99.90;;;;;;5114655;27;20481;-70
2022/10/07 07:18:54;;;;;;;33.10;28.57;;;15.50;99.90;;;;;;5134277;27;20431;-70
2022/10/07 07:21:21;;;;;;;33.30;26.90;;;15.60;99.90;;;;;;5133403;27;20206;-70
2022/10/07 07:23:47;;;;;;;30.90;26.70;;;15.70;99.90;;;;;;5134005;27;20457;-69
2022/10/07 07:26:13;;;;;;;31.93;27.60;;;15.80;99.90;;;;;;5133300;27;20471;-70
2022/10/07 07:28:39;;;;;;;28.73;25.63;;;16.00;99.90;;;;;;5134393;27;20416;-71
2022/10/07 07:31:09;;;;;;;28.23;23.87;;;16.10;99.90;;;;;;5135350;27;20457;-71
2022/10/07 07:33:38;;;;;;;30.50;26.60;;;16.20;99.90;;;;;;5136240;27;20508;-72
2022/10/07 07:36:24;;;;;;;30.03;26.83;;;16.40;99.90;;;;;;5135062;27;20514;-72
2022/10/07 07:38:51;;;;;;;26.73;23.73;;;16.50;99.90;;;;;;5136228;27;20414;-71
2022/10/07 07:41:22;;;;;;;27.77;24.87;;;16.70;99.90;;;;;;5133538;27;20448;-70
2022/10/07 07:43:53;;;;;;;25.77;22.90;;;16.80;99.90;;;;;;5135617;27;20769;-70
2022/10/07 07:46:20;;;;;;;25.90;23.17;;;17.00;99.90;;;;;;5135784;27;20910;-70
2022/10/07 07:48:46;;;;;;;25.93;22.77;;;17.20;99.90;;;;;;5116766;27;20423;-70
2022/10/07 07:51:13;;;;;;;24.90;22.40;;;17.40;99.90;;;;;;5133905;27;20596;-70
2022/10/07 07:53:38;;;;;;;24.03;21.50;;;17.70;99.90;;;;;;5134104;27;20182;-70
2022/10/07 07:56:04;;;;;;;22.77;20.37;;;18.10;99.90;;;;;;5134850;27;20424;-70
2022/10/07 07:58:30;;;;;;;22.33;20.20;;;18.70;99.90;;;;;;5134658;27;20616;-70
2022/10/07 08:01:07;;;;;;;21.07;18.50;;;19.30;99.90;;;;;;5134361;27;20468;-70
2022/10/07 08:03:37;;;;;;;20.23;18.20;;;20.00;99.90;;;;;;5115384;27;20251;-70
2022/10/07 08:06:07;;;;;;;20.37;18.17;;;20.80;99.90;;;;;;5125227;27;20985;-71
2022/10/07 08:08:33;;;;;;;18.10;15.60;;;21.70;99.90;;;;;;5115688;27;20423;-71
2022/10/07 08:11:19;;;;;;;15.33;13.83;;;22.50;99.90;;;;;;5131346;27;20446;-71
2022/10/07 08:13:45;;;;;;;16.37;14.67;;;23.40;99.90;;;;;;5112432;27;20375;-71
2022/10/07 08:16:16;;;;;;;15.63;14.10;;;24.10;99.90;;;;;;5128973;27;20435;-71
2022/10/07 08:18:47;;;;;;;15.30;13.70;;;24.90;99.90;;;;;;5132525;27;20428;-71
2022/10/07 08:21:14;;;;;;;15.30;13.80;;;25.40;99.90;;;;;;5094271;27;20861;-71
2022/10/07 08:23:40;;;;;;;14.47;13.07;;;25.90;99.90;;;;;;5131626;27;20541;-71
2022/10/07 08:26:07;;;;;;;14.87;13.23;;;26.40;99.90;;;;;;5112069;27;20978;-71
2022/10/07 08:28:34;;;;;;;14.73;13.20;;;26.80;99.90;;;;;;5122668;27;20175;-71
2022/10/07 08:31:05;;;;;;;14.17;12.20;;;27.40;99.90;;;;;;5109996;27;20438;-70
2022/10/07 08:33:33;;;;;;;13.60;12.30;;;27.80;99.90;;;;;;5105613;27;20483;-70
2022/10/07 08:36:01;;;;;;;12.60;11.30;;;28.20;99.90;;;;;;5108746;27;20963;-70
2022/10/07 08:38:31;;;;;;;14.47;12.97;;;28.50;99.90;;;;;;5120375;27;20494;-70
2022/10/07 08:41:21;;;;;;;14.87;13.27;;;28.70;99.90;;;;;;5117793;27;20438;-70
2022/10/07 08:43:48;;;;;;;16.13;12.97;;;28.50;99.90;;;;;;5124251;27;20445;-70
2022/10/07 08:46:26;;;;;;;15.17;12.00;;;28.20;99.90;;;;;;5119220;27;20466;-70
2022/10/07 08:49:03;;;;;;;15.07;11.80;;;27.70;99.90;;;;;;5114682;27;20506;-70
2022/10/07 08:51:38;;;;;;;12.77;11.57;;;27.20;99.90;;;;;;5126341;27;20447;-70
2022/10/07 08:54:04;;;;;;;12.87;11.50;;;26.60;99.90;;;;;;5125306;27;20931;-70
2022/10/07 08:56:32;;;;;;;13.30;11.50;;;26.10;99.90;;;;;;5125342;27;21000;-70
2022/10/07 08:59:09;;;;;;;14.00;12.40;;;25.70;99.90;;;;;;5110883;27;20426;-69
2022/10/07 09:01:44;;;;;;;12.03;10.87;;;25.30;99.90;;;;;;5097140;27;20461;-70
2022/10/07 09:04:26;;;;;;;11.83;10.63;;;24.90;99.90;;;;;;5127836;27;20782;-71
2022/10/07 09:06:59;;;;;;;14.40;11.00;;;24.60;99.90;;;;;;5127732;27;20860;-70
2022/10/07 09:09:32;;;;;;;13.20;10.17;;;24.30;99.90;;;;;;5112277;27;20414;-69
2022/10/07 09:12:00;;;;;;;13.10;11.67;;;24.00;99.90;;;;;;5109604;27;20443;-69
2022/10/07 09:14:27;;;;;;;14.60;11.37;;;23.70;99.90;;;;;;5113387;27;20471;-70
2022/10/07 09:17:12;;;;;;;13.00;11.73;;;23.40;99.90;;;;;;5112367;27;20412;-71
2022/10/07 09:19:44;;;;;;;13.20;11.83;;;23.20;99.90;;;;;;5117440;27;20505;-70
2022/10/07 09:22:23;;;;;;;12.90;11.60;;;23.00;99.90;;;;;;5127778;27;20778;-70
2022/10/07 09:24:56;;;;;;;14.00;12.60;;;22.90;99.90;;;;;;5107979;27;20471;-71
2022/10/07 09:27:21;;;;;;;12.37;11.07;;;22.80;99.90;;;;;;5107952;27;20489;-70
2022/10/07 09:29:48;;;;;;;14.70;12.23;;;22.60;99.90;;;;;;5121734;27;20846;-69
2022/10/07 09:32:17;;;;;;;13.60;12.10;;;22.50;99.90;;;;;;5124604;27;20262;-70
2022/10/07 09:34:44;;;;;;;15.17;11.13;;;22.40;99.90;;;;;;5112412;27;20438;-70
2022/10/07 09:37:26;;;;;;;13.47;11.40;;;22.40;99.90;;;;;;5124976;27;20419;-70
2022/10/07 09:39:53;;;;;;;13.30;11.17;;;22.30;99.90;;;;;;5112118;27;20448;-70
2022/10/07 09:42:33;;;;;;;13.80;11.83;;;22.20;99.90;;;;;;5125745;27;20820;-70
2022/10/07 09:45:03;;;;;;;13.30;12.00;;;22.20;99.90;;;;;;5125509;27;21009;-70
2022/10/07 09:47:36;;;;;;;12.97;11.60;;;22.10;99.90;;;;;;5127317;27;20521;-70
2022/10/07 09:50:02;;;;;;;13.87;11.90;;;22.10;99.90;;;;;;5109336;28;20836;-70
2022/10/07 09:52:30;;;;;;;13.37;12.03;;;22.00;99.90;;;;;;5128557;28;20454;-70
2022/10/07 09:55:15;;;;;;;12.37;11.27;;;22.00;99.90;;;;;;5126663;27;20454;-70
2022/10/07 09:57:41;;;;;;;12.10;10.90;;;21.90;99.90;;;;;;5108846;28;20447;-69
2022/10/07 10:00:19;;;;;;;12.20;10.90;;;21.90;99.90;;;;;;5127714;27;20470;-69
2022/10/07 10:02:57;;;;;;;13.00;11.50;;;21.80;99.90;;;;;;5126160;28;20360;-69
2022/10/07 10:05:35;;;;;;;12.90;11.60;;;21.70;99.90;;;;;;5124562;27;20817;-70
2022/10/07 10:08:26;;;;;;;13.33;12.03;;;21.60;99.90;;;;;;5123946;28;20419;-70
2022/10/07 10:10:58;;;;;;;11.80;10.70;;;21.50;99.90;;;;;;5070416;28;21192;-70
2022/10/07 10:13:38;;;;;;;14.03;12.43;;;21.40;99.90;;;;;;5130022;28;20904;-69
2022/10/07 10:16:25;;;;;;;14.77;12.57;;;21.40;99.90;;;;;;5132240;28;20427;-69
2022/10/07 10:19:03;;;;;;;11.47;10.30;;;21.40;99.90;;;;;;5114579;28;20510;-70
2022/10/07 10:21:34;;;;;;;12.30;9.93;;;21.40;99.90;;;;;;5112245;28;20437;-69
2022/10/07 10:24:09;;;;;;;11.40;10.20;;;21.40;99.90;;;;;;5125732;28;20538;-70
2022/10/07 10:26:56;;;;;;;10.73;7.77;;;21.40;99.90;;;;;;5130340;28;20463;-70
2022/10/07 10:29:36;;;;;;;8.33;7.47;;;21.30;99.90;;;;;;5114580;27;20438;-69
2022/10/07 10:32:11;;;;;;;11.30;9.80;;;21.30;99.90;;;;;;5092778;28;20447;-69
2022/10/07 10:34:54;;;;;;;9.50;8.53;;;21.30;99.90;;;;;;5103068;28;20533;-69
2022/10/07 10:37:32;;;;;;;9.97;8.83;;;21.20;99.90;;;;;;5111605;28;20472;-69
2022/10/07 10:40:16;;;;;;;8.80;7.93;;;21.20;99.90;;;;;;5123216;28;20431;-69
2022/10/07 10:42:53;;;;;;;10.97;9.60;;;21.20;99.90;;;;;;5122152;28;20434;-70
2022/10/07 10:45:37;;;;;;;10.77;9.67;;;21.10;99.90;;;;;;5099277;28;20936;-69
2022/10/07 10:48:15;;;;;;;10.67;9.57;;;21.10;99.90;;;;;;5098862;28;20440;-69
2022/10/07 10:50:52;;;;;;;10.40;9.30;;;21.10;99.90;;;;;;5102161;28;20474;-69
2022/10/07 10:53:23;;;;;;;12.10;10.20;;;21.10;99.90;;;;;;5119461;28;20433;-69
2022/10/07 10:56:13;;;;;;;10.10;9.20;;;21.10;99.90;;;;;;5114749;28;20479;-69
2022/10/07 10:59:13;;;;;;;10.20;9.20;;;21.00;99.90;;;;;;5118712;28;20493;-70
2022/10/07 11:01:41;;;;;;;12.37;9.60;;;21.10;99.90;;;;;;5122536;27;20486;-70
2022/10/07 11:04:16;;;;;;;10.73;8.30;;;21.10;99.90;;;;;;5119852;27;20774;-69
2022/10/07 11:06:47;;;;;;;12.67;9.50;;;21.10;99.90;;;;;;5103588;27;20466;-70
2022/10/07 11:09:37;;;;;;;11.83;8.73;;;21.10;99.90;;;;;;5104758;27;20561;-69
2022/10/07 11:12:10;;;;;;;10.20;9.20;;;21.10;99.90;;;;;;5099781;27;20480;-69
2022/10/07 11:14:44;;;;;;;11.40;9.70;;;21.10;99.90;;;;;;5106465;27;20956;-71
2022/10/07 11:17:12;;;;;;;10.07;9.00;;;21.10;99.90;;;;;;5105860;27;20431;-69
2022/10/07 11:19:44;;;;;;;12.27;8.90;;;21.10;99.90;;;;;;5125639;27;20504;-70
2022/10/07 11:22:16;;;;;;;9.13;8.20;;;21.10;99.90;;;;;;5104074;27;20468;-70
2022/10/07 11:24:49;;;;;;;8.87;7.97;;;21.20;99.90;;;;;;5121218;27;20471;-70
2022/10/07 11:27:33;;;;;;;9.37;8.37;;;21.10;99.90;;;;;;5106562;27;21232;-69
2022/10/07 11:30:07;;;;;;;8.70;7.17;;;21.10;99.90;;;;;;5114207;27;20473;-69
2022/10/07 11:32:41;;;;;;;8.77;7.87;;;21.10;99.90;;;;;;5133003;27;20423;-70
2022/10/07 11:35:16;;;;;;;8.43;7.53;;;21.10;99.90;;;;;;5113847;27;20471;-70
2022/10/07 11:38:04;;;;;;;8.13;7.33;;;21.10;99.90;;;;;;5110325;27;20438;-70
2022/10/07 11:40:32;;;;;;;7.30;6.27;;;21.10;99.90;;;;;;5130462;27;20427;-69
2022/10/07 11:43:07;;;;;;;7.40;6.33;;;21.10;99.90;;;;;;5130335;27;20411;-70
2022/10/07 11:45:42;;;;;;;10.30;7.03;;;21.20;99.90;;;;;;5111077;27;20551;-69
2022/10/07 11:48:16;;;;;;;7.30;6.60;;;21.20;99.90;;;;;;5127913;27;20411;-69
2022/10/07 11:50:50;;;;;;;9.50;6.93;;;21.20;99.90;;;;;;5124296;27;20447;-69
2022/10/07 11:53:21;;;;;;;6.40;5.80;;;21.20;99.90;;;;;;5111167;27;20511;-69
2022/10/07 11:56:15;;;;;;;6.30;5.70;;;21.20;99.90;;;;;;5106368;27;20777;-71
2022/10/07 11:58:43;;;;;;;8.90;6.13;;;21.20;99.90;;;;;;5115452;27;20474;-71
2022/10/07 12:01:29;;;;;;;7.80;6.10;;;21.20;99.90;;;;;;5126654;27;20518;-70
2022/10/07 12:04:16;;;;;;;6.37;5.50;;;21.20;99.90;;;;;;5129143;27;20423;-71
2022/10/07 12:07:19;;;;;;;9.10;8.10;;;21.20;99.90;;;;;;5128404;27;20462;-71
2022/10/07 12:10:00;;;;;;;7.40;6.23;;;21.20;99.90;;;;;;5130317;27;20529;-71
2022/10/07 12:12:54;;;;;;;5.70;5.10;;;21.10;99.90;;;;;;5107797;27;20435;-72
2022/10/07 12:15:38;;;;;;;5.27;4.53;;;21.10;99.90;;;;;;5110972;27;20464;-70
2022/10/07 12:18:04;;;;;;;6.77;5.83;;;21.10;99.90;;;;;;5130894;27;20431;-72
2022/10/07 12:20:43;;;;;;;7.07;5.53;;;21.10;99.90;;;;;;5112219;27;20488;-72
2022/10/07 12:23:21;;;;;;;6.23;5.50;;;21.10;99.90;;;;;;5132035;27;20355;-71
2022/10/07 12:25:49;;;;;;;6.77;5.90;;;21.10;99.90;;;;;;5129376;27;21247;-70
2022/10/07 12:28:22;;;;;;;6.60;6.00;;;21.20;99.90;;;;;;5102993;27;20427;-71
2022/10/07 12:30:53;;;;;;;7.57;6.50;;;21.20;99.90;;;;;;5120521;27;20772;-71
2022/10/07 12:33:42;;;;;;;6.93;6.27;;;21.20;99.90;;;;;;5107500;27;20434;-70
2022/10/07 12:36:22;;;;;;;11.10;6.23;;;21.20;99.90;;;;;;5128089;27;20504;-70
2022/10/07 12:38:58;;;;;;;12.03;6.60;;;21.20;99.90;;;;;;5111197;27;20435;-70
2022/10/07 12:41:28;;;;;;;8.40;7.50;;;21.20;99.90;;;;;;5117790;27;21031;-70
2022/10/07 12:44:05;;;;;;;11.40;7.63;;;21.20;99.90;;;;;;5127297;27;20962;-70
2022/10/07 12:46:36;;;;;;;7.77;6.97;;;21.20;99.90;;;;;;5121815;27;20462;-72
2022/10/07 12:49:13;;;;;;;10.67;8.13;;;21.20;99.90;;;;;;5094508;28;20534;-70
2022/10/07 12:51:39;;;;;;;12.03;8.67;;;21.20;99.90;;;;;;5093982;27;21154;-70
2022/10/07 12:54:19;;;;;;;8.13;7.33;;;21.20;99.90;;;;;;5124440;27;20438;-70
2022/10/07 12:56:45;;;;;;;8.90;7.60;;;21.20;99.90;;;;;;5101057;28;20463;-71